createdAt,value
2023-03-12T00:01:24.325Z,0.63
2023-03-12T00:05:28.425Z,0.62
2023-03-12T00:09:32.503Z,0.58
2023-03-12T00:13:38.988Z,0.55
2023-03-12T00:17:43.110Z,0.51
2023-03-12T00:21:47.346Z,0.49
2023-03-12T00:25:51.376Z,0.48
2023-03-12T00:29:55.582Z,0.44
2023-03-12T00:34:01.523Z,0.44
2023-03-12T00:38:11.517Z,0.43
2023-03-12T00:42:15.616Z,0.38
2023-03-12T00:46:20.656Z,0.40
2023-03-12T00:50:28.235Z,0.39
2023-03-12T00:54:32.382Z,0.43
2023-03-12T01:28:20.304Z,0.53
2023-03-12T01:32:55.267Z,0.53
2023-03-12T01:47:44.393Z,0.54
2023-03-12T01:52:34.293Z,0.56
2023-03-12T01:57:35.395Z,0.56
2023-03-12T02:02:18.759Z,0.53
2023-03-12T02:07:06.583Z,0.56
2023-03-12T02:12:00.407Z,0.60
2023-03-12T02:16:26.893Z,0.61
2023-03-12T02:20:53.587Z,0.64
2023-03-12T02:25:15.809Z,0.64
2023-03-12T02:29:20.134Z,0.64
2023-03-12T02:33:25.404Z,0.66
2023-03-12T02:37:29.553Z,0.67
2023-03-12T02:41:37.865Z,0.73
2023-03-12T02:45:41.799Z,0.82
2023-03-12T02:49:46.900Z,0.82
2023-03-12T02:53:55.254Z,0.88
2023-03-12T02:57:59.240Z,0.96
2023-03-12T03:02:04.765Z,1.07
2023-03-12T03:06:12.117Z,1.18
2023-03-12T03:10:17.825Z,1.22
2023-03-12T03:14:28.079Z,1.18
2023-03-12T03:19:33.397Z,1.16
2023-03-12T03:23:37.849Z,1.14
2023-03-12T03:27:44.728Z,1.07
2023-03-12T03:31:48.838Z,0.99
2023-03-12T03:35:57.521Z,0.99
2023-03-12T03:40:01.703Z,0.99
2023-03-12T03:58:13.295Z,0.73
2023-03-12T04:16:48.008Z,0.65
2023-03-12T04:45:30.753Z,0.49
2023-03-12T04:49:34.463Z,0.47
2023-03-12T04:53:37.662Z,0.52
2023-03-12T04:57:41.117Z,0.58
2023-03-12T05:01:44.781Z,0.56
2023-03-12T05:05:48.226Z,0.54
2023-03-12T05:09:51.558Z,0.55
2023-03-12T05:13:55.123Z,0.53
2023-03-12T05:17:58.061Z,0.52
2023-03-12T05:22:01.658Z,0.50
2023-03-12T05:26:06.905Z,0.52
2023-03-12T05:30:10.984Z,0.54
2023-03-12T05:34:14.594Z,0.57
2023-03-12T05:38:18.319Z,0.61
2023-03-12T05:42:21.930Z,0.68
2023-03-12T05:46:27.053Z,0.77
2023-03-12T05:50:31.541Z,0.90
2023-03-12T05:54:35.167Z,1.02
2023-03-12T05:58:38.956Z,1.11
2023-03-12T06:02:42.324Z,1.21
2023-03-12T06:06:45.626Z,1.37
2023-03-12T06:10:53.439Z,1.50
2023-03-12T06:14:58.319Z,1.60
2023-03-12T06:19:04.039Z,1.72
2023-03-12T06:23:07.389Z,1.77
2023-03-12T06:27:10.956Z,1.76
2023-03-12T06:31:15.198Z,1.75
2023-03-12T06:35:18.590Z,1.80
2023-03-12T06:39:21.925Z,1.88
2023-03-12T06:43:26.716Z,1.98
2023-03-12T06:47:29.948Z,2.18
2023-03-12T06:51:33.328Z,2.41
2023-03-12T06:55:36.602Z,2.70
2023-03-12T06:59:40.269Z,3.00
2023-03-12T07:03:44.113Z,3.18
2023-03-12T07:07:47.304Z,3.38
2023-03-12T07:11:50.354Z,3.56
2023-03-12T07:15:53.844Z,3.67
2023-03-12T07:19:57.077Z,3.69
2023-03-12T07:43:04.004Z,3.54
2023-03-12T07:47:36.628Z,3.56
2023-03-12T07:51:41.144Z,3.59
2023-03-12T07:55:48.288Z,3.64
2023-03-12T07:59:52.989Z,3.63
2023-03-12T08:03:57.167Z,3.54
2023-03-12T08:08:01.192Z,3.38
2023-03-12T08:12:11.066Z,3.32
2023-03-12T08:16:15.281Z,3.28
